createdAt,value
2019-04-21T00:02:45.435Z,10.87
2019-04-21T00:08:15.068Z,11.20
2019-04-21T00:13:14.869Z,10.87
2019-04-21T00:18:05.946Z,11.87
2019-04-21T00:23:23.357Z,12.00
2019-04-21T00:28:47.475Z,12.07
2019-04-21T00:33:28.180Z,12.23
2019-04-21T00:39:02.089Z,13.20
2019-04-21T00:43:49.039Z,13.17
2019-04-21T00:49:00.350Z,13.00
2019-04-21T00:54:16.733Z,11.67
2019-04-21T00:59:21.388Z,11.50
2019-04-21T01:04:29.259Z,12.43
2019-04-21T01:09:27.914Z,11.03
2019-04-21T01:14:45.525Z,10.63
2019-04-21T01:19:41.206Z,11.20
2019-04-21T01:24:34.562Z,9.63
2019-04-21T01:30:02.940Z,10.60
2019-04-21T01:35:02.477Z,9.53
2019-04-21T01:40:16.529Z,10.00
2019-04-21T01:45:18.882Z,9.70
2019-04-21T01:50:22.202Z,10.03
2019-04-21T01:55:36.769Z,10.30
2019-04-21T02:00:41.111Z,11.07
2019-04-21T02:05:59.699Z,10.77
2019-04-21T02:16:06.530Z,11.20
2019-04-21T02:21:01.991Z,11.40
2019-04-21T02:26:21.832Z,11.97
2019-04-21T02:31:39.531Z,12.47
2019-04-21T02:36:58.548Z,11.77
2019-04-21T02:41:51.079Z,13.03
2019-04-21T02:52:02.035Z,14.37
2019-04-21T02:57:09.234Z,16.03
2019-04-21T03:02:24.940Z,14.70
2019-04-21T03:07:52.107Z,16.67
2019-04-21T03:12:32.122Z,13.23
2019-04-21T03:22:57.877Z,12.25
2019-04-21T03:38:17.281Z,12.23
2019-04-21T03:43:12.228Z,12.30
2019-04-21T03:48:36.753Z,13.13
2019-04-21T03:53:24.978Z,13.80
2019-04-21T03:58:51.784Z,13.20
2019-04-21T04:03:51.793Z,12.07
2019-04-21T04:19:28.534Z,11.53
2019-04-21T04:24:57.903Z,12.33
2019-04-21T04:29:24.569Z,11.27
2019-04-21T04:45:05.683Z,11.73
2019-04-21T04:49:51.583Z,10.37
2019-04-21T04:55:03.515Z,11.17
2019-04-21T05:05:19.440Z,37.37
2019-04-21T05:10:29.302Z,14.50
2019-04-21T05:15:25.491Z,13.67
2019-04-21T05:20:49.244Z,13.03
2019-04-21T05:25:31.099Z,12.13
2019-04-21T05:30:48.977Z,12.40
2019-04-21T05:36:09.392Z,11.77
2019-04-21T05:40:59.091Z,11.03
2019-04-21T05:46:13.375Z,11.73
2019-04-21T05:51:11.771Z,11.70
2019-04-21T05:56:22.274Z,10.53
2019-04-21T06:01:32.825Z,11.80
2019-04-21T06:06:43.586Z,11.00
2019-04-21T06:11:36.269Z,9.30
2019-04-21T06:16:52.972Z,8.87
2019-04-21T06:21:50.835Z,9.77
2019-04-21T06:27:14.828Z,9.97
2019-04-21T06:33:15.311Z,8.80
2019-04-21T06:37:34.553Z,9.57
2019-04-21T06:42:23.939Z,9.43
2019-04-21T06:47:33.525Z,9.97
2019-04-21T06:52:46.697Z,9.30
2019-04-21T06:57:40.305Z,9.37
2019-04-21T07:03:08.415Z,9.40
2019-04-21T07:08:09.838Z,9.37
2019-04-21T07:12:51.858Z,8.50
2019-04-21T07:18:08.983Z,9.03
2019-04-21T07:23:13.723Z,8.57
2019-04-21T07:28:19.328Z,7.40
2019-04-21T07:33:50.666Z,6.35
2019-04-21T07:38:29.826Z,6.57
2019-04-21T07:43:32.939Z,4.80
2019-04-21T07:48:44.168Z,5.60
2019-04-21T07:54:13.502Z,5.53
2019-04-21T08:04:20.815Z,5.93
2019-04-21T08:09:12.535Z,6.40
2019-04-21T08:14:17.745Z,5.80
2019-04-21T08:19:25.243Z,6.50
2019-04-21T08:24:36.363Z,6.30
2019-04-21T08:29:39.213Z,5.40
2019-04-21T08:34:59.518Z,5.90
2019-04-21T08:39:56.522Z,5.67
2019-04-21T08:45:05.992Z,5.03
2019-04-21T08:50:02.130Z,5.37
2019-04-21T08:55:25.381Z,5.10
2019-04-21T09:00:46.872Z,3.77
2019-04-21T09:05:49.408Z,3.87
2019-04-21T09:10:56.104Z,3.60
2019-04-21T09:15:58.023Z,4.10
2019-04-21T09:21:05.508Z,3.63
2019-04-21T09:26:14.444Z,4.00
2019-04-21T09:31:04.455Z,4.55
2019-04-21T09:36:09.708Z,4.40
2019-04-21T09:41:16.222Z,4.73
2019-04-21T09:46:18.576Z,3.90
2019-04-21T09:51:23.664Z,5.10
2019-04-21T09:56:37.365Z,4.40
2019-04-21T10:01:52.955Z,4.93
2019-04-21T10:06:40.602Z,4.20
2019-04-21T10:11:45.943Z,4.57
2019-04-21T10:16:58.092Z,4.37
2019-04-21T10:22:02.723Z,4.43
2019-04-21T10:27:09.022Z,4.30
2019-04-21T10:32:13.758Z,4.87
2019-04-21T10:37:18.856Z,5.00
2019-04-21T10:42:23.721Z,4.60
2019-04-21T10:47:29.329Z,4.90
2019-04-21T10:52:53.274Z,4.87
2019-04-21T10:58:16.276Z,4.50
2019-04-21T11:03:31.142Z,4.43
2019-04-21T11:08:41.577Z,4.70
2019-04-21T11:13:42.502Z,4.77
2019-04-21T11:18:48.346Z,4.30
2019-04-21T11:23:54.164Z,4.40
2019-04-21T11:28:59.117Z,4.27
2019-04-21T11:34:05.033Z,4.07
2019-04-21T11:39:22.061Z,4.00
2019-04-21T11:44:18.407Z,4.33
2019-04-21T11:49:24.556Z,4.27
2019-04-21T11:54:30.985Z,3.87
2019-04-21T11:59:35.760Z,4.05
2019-04-21T12:04:41.357Z,4.25
2019-04-21T12:09:45.868Z,3.70
2019-04-21T12:14:50.351Z,3.70
2019-04-21T12:19:56.925Z,3.62
2019-04-21T12:25:02.970Z,3.60
2019-04-21T12:30:09.603Z,3.42
2019-04-21T12:35:15.831Z,3.15
2019-04-21T12:40:21.696Z,3.60
2019-04-21T12:45:26.448Z,3.47
2019-04-21T12:50:32.074Z,3.10
2019-04-21T12:55:41.093Z,3.30
2019-04-21T13:00:43.039Z,3.10
2019-04-21T13:05:49.570Z,3.22
2019-04-21T13:10:54.151Z,3.15
2019-04-21T13:15:58.608Z,3.08
2019-04-21T13:21:05.215Z,3.20
2019-04-21T13:26:10.031Z,2.85
2019-04-21T13:31:16.142Z,2.95
2019-04-21T13:36:21.332Z,2.62
2019-04-21T13:41:41.905Z,2.65
2019-04-21T13:46:32.520Z,3.17
2019-04-21T13:51:38.215Z,3.33
2019-04-21T13:56:44.742Z,3.37
2019-04-21T14:01:49.843Z,3.25
2019-04-21T14:06:54.388Z,3.37
2019-04-21T14:11:59.223Z,3.50
2019-04-21T14:17:05.893Z,3.50
2019-04-21T14:22:14.242Z,3.40
2019-04-21T14:27:18.738Z,3.55
2019-04-21T14:32:24.269Z,3.95
2019-04-21T14:37:28.879Z,3.92
2019-04-21T14:42:33.996Z,4.12
2019-04-21T14:47:58.965Z,4.10
2019-04-21T14:53:11.853Z,3.90
2019-04-21T14:58:17.202Z,4.50
2019-04-21T15:03:23.516Z,4.28
2019-04-21T15:08:28.988Z,4.08
2019-04-21T15:13:35.470Z,4.17
2019-04-21T15:18:41.015Z,4.35
2019-04-21T15:23:46.571Z,5.08
2019-04-21T15:28:51.111Z,4.20
2019-04-21T15:33:57.032Z,4.53
2019-04-21T15:39:01.775Z,3.50
2019-04-21T15:44:09.755Z,4.25
2019-04-21T15:49:15.408Z,3.62
2019-04-21T15:54:20.592Z,4.67
2019-04-21T15:59:30.573Z,4.50
2019-04-21T16:04:36.801Z,4.77
2019-04-21T16:09:41.828Z,4.47
2019-04-21T16:14:46.951Z,4.70
2019-04-21T16:19:52.188Z,4.63
2019-04-21T16:24:56.913Z,4.23
2019-04-21T16:30:01.975Z,4.40
2019-04-21T16:35:11.139Z,4.77
2019-04-21T16:40:17.172Z,5.27
2019-04-21T16:45:25.249Z,4.40
2019-04-21T16:50:29.898Z,4.50
2019-04-21T16:55:37.128Z,4.57
2019-04-21T17:00:53.943Z,4.63
2019-04-21T17:05:52.022Z,4.70
2019-04-21T17:11:06.389Z,4.60
2019-04-21T17:16:29.614Z,5.20
2019-04-21T17:21:10.689Z,4.70
2019-04-21T17:26:15.422Z,5.30
2019-04-21T17:31:20.270Z,7.73
2019-04-21T17:36:25.333Z,7.40
2019-04-21T17:41:39.329Z,8.00
2019-04-21T17:46:43.656Z,6.73
2019-04-21T17:51:55.134Z,5.73
2019-04-21T17:57:31.813Z,6.60
2019-04-21T18:02:28.246Z,6.70
2019-04-21T18:07:31.613Z,6.53
2019-04-21T18:12:33.565Z,8.37
2019-04-21T18:17:24.642Z,5.43
2019-04-21T18:22:37.470Z,4.47
2019-04-21T18:27:40.608Z,4.00
2019-04-21T18:32:46.023Z,4.37
2019-04-21T18:38:08.007Z,5.47
2019-04-21T18:43:43.701Z,10.37
2019-04-21T18:48:24.593Z,5.47
2019-04-21T18:53:36.512Z,4.50
2019-04-21T18:58:28.795Z,6.00
2019-04-21T19:03:39.896Z,7.73
2019-04-21T19:08:59.251Z,7.57
2019-04-21T19:14:30.367Z,7.33
2019-04-21T19:24:29.080Z,9.77
2019-04-21T19:29:31.938Z,9.80
2019-04-21T19:34:26.740Z,10.95
2019-04-21T19:39:43.130Z,11.73
2019-04-21T19:44:52.136Z,11.27
2019-04-21T19:50:01.897Z,13.67
2019-04-21T19:54:50.394Z,13.47
2019-04-21T19:59:58.531Z,15.03
2019-04-21T20:05:07.080Z,16.03
2019-04-21T20:10:26.912Z,13.67
2019-04-21T20:15:52.402Z,12.60
2019-04-21T20:20:21.718Z,11.10
2019-04-21T20:25:28.926Z,14.67
2019-04-21T20:30:52.903Z,16.82
2019-04-21T20:36:15.052Z,15.97
2019-04-21T20:40:56.960Z,12.07
2019-04-21T20:46:07.979Z,8.67
2019-04-21T20:51:18.415Z,9.87
2019-04-21T20:56:13.211Z,9.63
2019-04-21T21:06:32.937Z,9.87
2019-04-21T21:11:54.031Z,8.78
2019-04-21T21:16:53.104Z,8.20
2019-04-21T21:21:49.720Z,10.83
2019-04-21T21:26:58.102Z,12.37
2019-04-21T21:32:16.828Z,13.53
2019-04-21T21:37:21.809Z,10.63
2019-04-21T21:42:05.562Z,14.70
2019-04-21T21:47:23.056Z,17.40
2019-04-21T21:52:29.788Z,12.63
2019-04-21T21:57:20.662Z,12.70
2019-04-21T22:02:35.359Z,12.27
2019-04-21T22:07:33.709Z,8.30
2019-04-21T22:12:45.800Z,7.37
2019-04-21T22:18:05.964Z,7.20
2019-04-21T22:22:58.358Z,6.53
2019-04-21T22:27:57.760Z,6.47
2019-04-21T22:33:08.606Z,7.47
2019-04-21T22:38:25.675Z,7.33
2019-04-21T22:43:21.703Z,8.60
2019-04-21T22:48:23.679Z,7.77
2019-04-21T22:53:34.689Z,8.47
2019-04-21T22:58:38.745Z,8.80
2019-04-21T23:03:47.147Z,8.10
2019-04-21T23:08:47.636Z,7.93
2019-04-21T23:14:00.639Z,8.77
2019-04-21T23:19:16.911Z,7.87
2019-04-21T23:24:31.395Z,7.73
2019-04-21T23:29:41.225Z,7.43
2019-04-21T23:34:25.113Z,6.80
2019-04-21T23:39:28.959Z,6.77
2019-04-21T23:44:33.897Z,6.63
2019-04-21T23:49:47.095Z,6.47
2019-04-21T23:54:45.182Z,5.83
2019-04-21T23:59:55.396Z,5.47
